Time;durP1;ratioP1;P1;durP2;ratioP2;P2;SDS_P1;SDS_P2;PMS_P1;PMS_P2;Temp;Humidity;BMP_temperature;BMP_pressure;BME280_temperature;BME280_humidity;BME280_pressure;Samples;Min_cycle;Max_cycle;Signal;HPM_P1;HPM_P2
2022/06/08 02:47:20;;;;;;;4.57;0.30;;;14.60;99.90;;;;;;5495525;23;89141;-71
2022/06/08 02:49:47;;;;;;;5.05;0.50;;;14.70;99.90;;;;;;4915352;28;86969;-71
2022/06/08 02:52:25;;;;;;;5.28;0.38;;;14.60;99.90;;;;;;4919065;28;86968;-71
2022/06/08 02:54:51;;;;;;;2.40;0.45;;;14.50;99.90;;;;;;4915102;28;87004;-71
2022/06/08 02:57:41;;;;;;;1.45;0.40;;;14.30;99.90;;;;;;4918350;28;87180;-71
2022/06/08 03:00:16;;;;;;;2.88;0.20;;;14.20;99.90;;;;;;4918705;28;88082;-71
2022/06/08 03:02:53;;;;;;;2.33;0.40;;;14.30;99.90;;;;;;4918849;28;86971;-71
2022/06/08 03:05:28;;;;;;;3.40;0.32;;;14.30;99.90;;;;;;4907768;28;86909;-71
2022/06/08 03:08:00;;;;;;;3.40;0.32;;;14.20;99.90;;;;;;4918039;28;88328;-71
2022/06/08 03:10:30;;;;;;;2.97;0.43;;;14.10;99.90;;;;;;4918379;28;88407;-71
2022/06/08 03:13:20;;;;;;;2.22;0.30;;;14.00;99.90;;;;;;4919144;28;86903;-72
2022/06/08 03:15:55;;;;;;;2.50;0.22;;;14.00;99.90;;;;;;4917487;28;86889;-71
2022/06/08 03:18:22;;;;;;;3.03;0.28;;;14.00;99.90;;;;;;4918674;28;87838;-71
2022/06/08 03:20:47;;;;;;;2.97;0.20;;;13.90;99.90;;;;;;4917922;28;87059;-71
2022/06/08 03:23:13;;;;;;;2.45;0.40;;;14.00;99.90;;;;;;4917772;28;87109;-71
2022/06/08 03:25:39;;;;;;;3.50;0.30;;;13.90;99.90;;;;;;4918964;28;86075;-73
2022/06/08 03:28:05;;;;;;;3.28;0.40;;;13.90;99.90;;;;;;4917150;28;86975;-72
2022/06/08 03:30:31;;;;;;;5.85;0.80;;;13.90;99.90;;;;;;4918017;28;87618;-72
2022/06/08 03:32:57;;;;;;;2.67;0.40;;;13.90;99.90;;;;;;4918179;28;88397;-72
2022/06/08 03:35:22;;;;;;;3.00;0.40;;;13.90;99.90;;;;;;4918267;28;86928;-72
2022/06/08 03:37:49;;;;;;;4.22;0.30;;;13.90;99.90;;;;;;4916147;28;87154;-72
2022/06/08 03:40:16;;;;;;;1.55;0.30;;;13.90;99.90;;;;;;4914485;28;86670;-72
2022/06/08 03:42:42;;;;;;;4.15;0.52;;;13.90;99.90;;;;;;4916099;28;87597;-72
2022/06/08 03:45:08;;;;;;;2.95;0.45;;;13.90;99.90;;;;;;4918392;28;87819;-73
2022/06/08 03:47:40;;;;;;;3.15;0.40;;;14.00;99.90;;;;;;4916657;28;88525;-72
2022/06/08 03:50:09;;;;;;;2.70;0.50;;;14.10;99.90;;;;;;4919062;28;86887;-70
2022/06/08 03:52:40;;;;;;;1.90;0.30;;;14.10;99.90;;;;;;4917983;28;87052;-72
2022/06/08 03:55:08;;;;;;;3.15;0.40;;;14.10;99.90;;;;;;4919952;28;87381;-72
2022/06/08 03:57:34;;;;;;;3.38;0.30;;;14.20;99.90;;;;;;4917563;28;89143;-72
2022/06/08 04:00:01;;;;;;;2.17;0.30;;;14.50;99.90;;;;;;4919121;28;88261;-72
2022/06/08 04:02:28;;;;;;;2.85;0.30;;;15.00;99.90;;;;;;4912352;28;87034;-72
2022/06/08 04:04:53;;;;;;;4.22;0.30;;;15.30;99.90;;;;;;4919357;28;87553;-72
2022/06/08 04:07:19;;;;;;;2.78;0.22;;;15.40;99.90;;;;;;4909499;28;87756;-71
2022/06/08 04:09:45;;;;;;;2.28;0.30;;;15.50;99.90;;;;;;4918996;28;87106;-73
2022/06/08 04:12:11;;;;;;;2.00;0.35;;;15.30;99.90;;;;;;4917886;28;86876;-72
2022/06/08 04:14:37;;;;;;;2.50;0.20;;;15.50;99.90;;;;;;4918931;28;86338;-72
2022/06/08 04:17:03;;;;;;;2.45;0.10;;;16.00;99.90;;;;;;4916307;28;87189;-73
2022/06/08 04:19:30;;;;;;;1.70;0.17;;;16.10;99.90;;;;;;4913241;28;87173;-72
2022/06/08 04:21:56;;;;;;;2.13;0.20;;;15.90;99.90;;;;;;4912993;28;87741;-71
2022/06/08 04:24:23;;;;;;;3.15;0.20;;;16.00;99.90;;;;;;4918921;28;87053;-73
2022/06/08 04:26:50;;;;;;;2.47;0.40;;;16.50;99.90;;;;;;4918161;28;87177;-72
2022/06/08 04:29:17;;;;;;;2.10;0.30;;;17.10;99.90;;;;;;4927060;28;87356;-72
2022/06/08 04:31:43;;;;;;;3.38;0.50;;;17.30;99.90;;;;;;4918873;28;86950;-72
2022/06/08 04:34:10;;;;;;;1.45;0.20;;;17.20;98.60;;;;;;4918626;28;86989;-73
2022/06/08 04:36:38;;;;;;;1.42;0.43;;;17.00;98.20;;;;;;4912418;28;87765;-69
2022/06/08 04:39:06;;;;;;;2.80;0.60;;;16.70;98.90;;;;;;4912207;28;87024;-72
2022/06/08 04:41:33;;;;;;;3.33;0.90;;;16.90;99.70;;;;;;4915646;28;87113;-72
2022/06/08 04:43:59;;;;;;;1.85;0.10;;;17.50;97.60;;;;;;4913282;28;87396;-72
2022/06/08 04:46:25;;;;;;;2.65;0.30;;;18.00;95.60;;;;;;4915752;28;88456;-72
2022/06/08 04:48:51;;;;;;;1.10;0.28;;;18.20;93.70;;;;;;4911649;28;88826;-73
2022/06/08 04:51:17;;;;;;;2.08;0.40;;;18.20;93.20;;;;;;4914713;28;86821;-72
2022/06/08 04:53:45;;;;;;;3.10;0.40;;;18.40;92.90;;;;;;4916721;28;88444;-72
2022/06/08 04:56:11;;;;;;;1.95;0.28;;;19.20;90.50;;;;;;4917265;28;87822;-71
2022/06/08 04:58:36;;;;;;;1.85;0.40;;;20.30;87.20;;;;;;4914394;28;87385;-61
2022/06/08 05:01:03;;;;;;;1.45;0.40;;;21.80;85.80;;;;;;4910904;28;89156;-63
2022/06/08 05:03:30;;;;;;;2.85;0.50;;;23.30;76.60;;;;;;4915021;28;86287;-61
2022/06/08 05:05:57;;;;;;;1.30;0.40;;;24.00;68.60;;;;;;4912617;28;90317;-63
2022/06/08 05:08:24;;;;;;;1.80;0.47;;;24.00;69.90;;;;;;4909419;28;87069;-64
2022/06/08 05:10:51;;;;;;;8.18;0.32;;;24.60;67.30;;;;;;4912480;28;88066;-72
2022/06/08 05:13:18;;;;;;;3.35;0.50;;;25.30;63.30;;;;;;4913688;28;87165;-72
2022/06/08 05:15:45;;;;;;;3.90;0.57;;;26.00;63.30;;;;;;4913448;28;87477;-71
2022/06/08 05:18:12;;;;;;;2.40;0.47;;;26.50;60.60;;;;;;4917273;28;87121;-73
2022/06/08 05:20:40;;;;;;;4.28;0.77;;;25.90;60.00;;;;;;4913930;28;87366;-73
2022/06/08 05:23:08;;;;;;;2.45;0.65;;;25.30;61.80;;;;;;4915594;28;88203;-72
2022/06/08 05:25:37;;;;;;;2.17;1.08;;;24.60;62.00;;;;;;4910639;28;86916;-72
2022/06/08 05:28:04;;;;;;;;;;;24.70;61.50;;;;;;4915524;28;86678;-72
2022/06/08 05:30:32;;;;;;;3.80;0.73;;;24.40;63.70;;;;;;4921103;28;86959;-72
2022/06/08 05:32:58;;;;;;;3.15;0.70;;;24.30;63.40;;;;;;4918772;28;88253;-72
2022/06/08 05:35:23;;;;;;;2.08;0.73;;;24.90;63.30;;;;;;4919623;28;87913;-72
2022/06/08 05:37:50;;;;;;;4.53;0.68;;;25.30;62.30;;;;;;4917578;28;87886;-70
2022/06/08 05:40:17;;;;;;;3.15;1.13;;;25.80;60.30;;;;;;4919335;28;86976;-69
2022/06/08 05:42:43;;;;;;;3.25;0.93;;;26.80;58.40;;;;;;4916499;28;87691;-72
2022/06/08 05:45:21;;;;;;;2.15;0.77;;;26.70;57.60;;;;;;4917261;28;86993;-70
2022/06/08 05:47:47;;;;;;;1.98;0.82;;;26.90;57.00;;;;;;4911659;28;87077;-72
2022/06/08 05:50:14;;;;;;;6.53;1.25;;;27.20;56.90;;;;;;4914999;28;86981;-70
2022/06/08 05:52:40;;;;;;;3.20;1.02;;;27.30;56.40;;;;;;4920070;28;86395;-70
2022/06/08 05:55:07;;;;;;;2.55;0.88;;;27.00;56.00;;;;;;4918898;28;87106;-70
2022/06/08 05:57:33;;;;;;;2.45;0.77;;;27.30;56.80;;;;;;4919527;28;88630;-69
2022/06/08 05:59:59;;;;;;;1.75;0.43;;;28.50;53.30;;;;;;4917345;28;87871;-71
2022/06/08 06:02:24;;;;;;;1.85;1.00;;;28.60;53.50;;;;;;4912742;28;87006;-72
2022/06/08 06:04:51;;;;;;;4.03;1.23;;;28.90;53.20;;;;;;4919039;28;87363;-72
2022/06/08 06:07:17;;;;;;;2.10;1.00;;;29.30;50.60;;;;;;4919741;28;87496;-72
2022/06/08 06:09:43;;;;;;;3.28;0.85;;;29.90;52.20;;;;;;4918829;28;87111;-72
2022/06/08 06:12:09;;;;;;;2.78;1.08;;;30.40;49.10;;;;;;4918411;28;87029;-72
2022/06/08 06:14:36;;;;;;;2.50;0.77;;;30.90;49.70;;;;;;4918931;28;89469;-72
2022/06/08 06:17:03;;;;;;;2.28;0.73;;;31.40;48.50;;;;;;4919561;28;87538;-72
2022/06/08 06:19:28;;;;;;;2.35;1.13;;;31.10;48.20;;;;;;4918137;28;87088;-72
2022/06/08 06:21:54;;;;;;;2.75;0.95;;;31.40;46.80;;;;;;4918369;28;87024;-72
2022/06/08 06:24:20;;;;;;;2.13;1.00;;;31.80;47.20;;;;;;4917475;28;89313;-72
2022/06/08 06:26:46;;;;;;;2.28;0.90;;;31.40;47.40;;;;;;4919094;28;88853;-72
2022/06/08 06:29:12;;;;;;;2.67;1.10;;;32.20;46.90;;;;;;4918625;28;87000;-70
2022/06/08 06:31:43;;;;;;;2.80;0.93;;;34.00;45.00;;;;;;4918960;28;86984;-72
2022/06/08 06:34:14;;;;;;;3.40;1.55;;;34.80;42.20;;;;;;4917244;28;87988;-72
2022/06/08 06:36:40;;;;;;;2.15;0.82;;;34.30;42.60;;;;;;4918613;28;87115;-70
2022/06/08 06:39:06;;;;;;;3.88;1.67;;;34.30;43.40;;;;;;4918813;28;87195;-70
2022/06/08 06:41:32;;;;;;;4.40;1.13;;;34.90;42.50;;;;;;4917401;28;86582;-70
2022/06/08 06:43:59;;;;;;;5.18;1.20;;;35.80;41.40;;;;;;4918577;28;87318;-70
2022/06/08 06:46:25;;;;;;;2.40;0.73;;;36.10;40.00;;;;;;4910713;28;87038;-70
2022/06/08 06:48:50;;;;;;;3.03;0.95;;;36.10;41.70;;;;;;4918185;28;88031;-71
2022/06/08 06:51:17;;;;;;;4.05;1.33;;;36.80;39.80;;;;;;4918128;28;86846;-70
2022/06/08 06:53:43;;;;;;;1.42;0.88;;;37.50;40.00;;;;;;4918184;28;87637;-70
2022/06/08 06:56:09;;;;;;;1.77;1.00;;;38.20;38.90;;;;;;4918098;28;87234;-70
2022/06/08 06:58:36;;;;;;;3.05;1.65;;;38.40;37.70;;;;;;4918665;28;87086;-71
2022/06/08 07:01:03;;;;;;;5.10;1.35;;;38.90;37.80;;;;;;4918080;28;87161;-70
2022/06/08 07:03:30;;;;;;;2.58;1.17;;;39.20;35.90;;;;;;4918773;28;88106;-70
2022/06/08 07:05:55;;;;;;;2.35;1.27;;;39.40;36.10;;;;;;4916852;28;87346;-70
2022/06/08 07:08:21;;;;;;;3.35;1.58;;;38.80;35.90;;;;;;4918565;28;87112;-70
2022/06/08 07:11:32;;;;;;;2.92;1.10;;;38.20;36.30;;;;;;4918297;28;87124;-72
2022/06/08 07:13:33;;;;;;;2.53;1.60;;;38.50;36.00;;;;;;4917069;28;88530;-72
2022/06/08 07:15:59;;;;;;;3.22;1.00;;;39.40;36.40;;;;;;4916697;28;89613;-70
2022/06/08 07:18:26;;;;;;;2.30;1.38;;;40.20;35.20;;;;;;4918435;28;87190;-70
2022/06/08 07:20:52;;;;;;;2.08;1.33;;;39.20;34.90;;;;;;4918636;28;87538;-74
2022/06/08 07:23:17;;;;;;;2.30;1.33;;;38.50;36.80;;;;;;4918036;28;86953;-73
2022/06/08 07:25:43;;;;;;;2.17;1.23;;;39.30;35.60;;;;;;4917515;28;88075;-73
2022/06/08 07:28:09;;;;;;;2.70;1.65;;;40.20;34.30;;;;;;4918059;28;86919;-73
2022/06/08 07:30:36;;;;;;;3.03;1.60;;;39.40;34.80;;;;;;4918312;28;86333;-73
2022/06/08 07:33:02;;;;;;;3.53;1.20;;;38.30;35.90;;;;;;4917603;28;87913;-73
2022/06/08 07:35:29;;;;;;;3.75;1.75;;;38.50;35.80;;;;;;4917549;28;88042;-73
2022/06/08 07:37:55;;;;;;;1.98;1.25;;;39.70;35.10;;;;;;4917096;28;87857;-73
2022/06/08 07:40:21;;;;;;;2.70;1.55;;;38.50;36.20;;;;;;4917538;28;87064;-73
2022/06/08 07:42:46;;;;;;;2.03;1.35;;;39.50;34.50;;;;;;4918136;28;87383;-73
2022/06/08 07:45:12;;;;;;;2.63;1.52;;;39.00;35.30;;;;;;4911190;28;88193;-73
2022/06/08 07:50:25;;;;;;;3.88;1.35;;;40.70;34.50;;;;;;4918024;28;86651;-71
2022/06/08 07:52:50;;;;;;;3.35;1.88;;;42.20;31.80;;;;;;4917166;28;87672;-71
2022/06/08 07:55:16;;;;;;;2.72;1.92;;;42.90;31.20;;;;;;4918059;28;87016;-71
2022/06/08 07:57:42;;;;;;;3.45;1.98;;;43.70;30.10;;;;;;4917683;28;87070;-71
2022/06/08 08:00:10;;;;;;;2.05;1.48;;;42.60;30.00;;;;;;4916186;28;87024;-71
2022/06/08 08:02:36;;;;;;;2.47;1.58;;;39.20;33.80;;;;;;4916838;28;89092;-73
2022/06/08 08:05:02;;;;;;;3.65;1.40;;;38.60;31.20;;;;;;4917336;28;88971;-72
2022/06/08 08:07:29;;;;;;;3.08;1.67;;;39.50;31.40;;;;;;4917247;28;87007;-73
2022/06/08 08:09:54;;;;;;;2.85;1.77;;;38.50;32.40;;;;;;4918223;28;86842;-72
2022/06/08 08:12:20;;;;;;;2.47;1.63;;;39.40;32.10;;;;;;4916361;28;87338;-74
2022/06/08 08:14:46;;;;;;;5.53;1.73;;;39.80;32.10;;;;;;4917628;28;88020;-73
2022/06/08 08:17:11;;;;;;;3.70;1.25;;;40.90;30.90;;;;;;4917607;28;87622;-70
2022/06/08 08:19:41;;;;;;;4.45;1.52;;;41.60;29.70;;;;;;4918109;28;86350;-73
2022/06/08 08:22:07;;;;;;;3.30;1.63;;;39.20;31.10;;;;;;4916689;28;88335;-71
2022/06/08 08:24:32;;;;;;;2.63;1.60;;;40.30;29.80;;;;;;4916457;28;87810;-73
2022/06/08 08:26:58;;;;;;;4.40;1.35;;;40.60;30.00;;;;;;4916810;28;87949;-73
2022/06/08 08:29:24;;;;;;;2.95;1.15;;;40.70;30.20;;;;;;4916693;28;86926;-73
2022/06/08 08:31:50;;;;;;;2.08;1.30;;;37.30;33.70;;;;;;4916652;28;87655;-73
2022/06/08 08:34:16;;;;;;;3.05;1.00;;;38.90;30.50;;;;;;4917140;28;87799;-74
2022/06/08 08:36:42;;;;;;;4.60;1.10;;;39.00;30.70;;;;;;4916314;28;87008;-73
2022/06/08 08:39:08;;;;;;;1.77;0.82;;;38.00;30.70;;;;;;4917304;28;86946;-72
2022/06/08 08:44:38;;;;;;;4.03;1.38;;;33.20;36.30;;;;;;4916746;28;86365;-73
2022/06/08 08:47:04;;;;;;;2.95;1.52;;;33.70;35.10;;;;;;4905393;28;87068;-73
2022/06/08 08:49:33;;;;;;;3.40;0.98;;;34.80;34.30;;;;;;4915570;28;87081;-73
2022/06/08 08:52:02;;;;;;;3.40;0.98;;;36.50;32.10;;;;;;4916083;28;89187;-73
2022/06/08 08:54:38;;;;;;;2.40;1.13;;;38.30;31.90;;;;;;4927711;28;88928;-72
2022/06/08 08:57:39;;;;;;;2.88;0.82;;;39.50;29.50;;;;;;4923317;28;87427;-73
2022/06/08 09:00:24;;;;;;;2.70;1.38;;;39.50;30.00;;;;;;4858218;28;87372;-73
2022/06/08 09:05:36;;;;;;;3.45;1.50;;;37.30;31.50;;;;;;4919200;28;87095;-73
2022/06/08 09:08:02;;;;;;;2.63;1.40;;;37.30;33.00;;;;;;4920041;28;86876;-73
2022/06/08 09:10:28;;;;;;;4.85;1.25;;;38.10;32.90;;;;;;4919810;28;86306;-73
2022/06/08 09:12:54;;;;;;;2.28;0.70;;;38.50;31.90;;;;;;4919453;28;87518;-73
2022/06/08 09:15:52;;;;;;;3.10;1.95;;;39.00;31.10;;;;;;4923504;28;86769;-73
2022/06/08 09:18:36;;;;;;;5.88;1.17;;;39.10;30.70;;;;;;4925081;28;87871;-73
2022/06/08 09:21:27;;;;;;;3.30;1.88;;;38.40;33.20;;;;;;4924083;28;87013;-73
2022/06/08 09:24:06;;;;;;;4.22;1.48;;;38.60;33.10;;;;;;4922942;28;87240;-73
2022/06/08 09:26:36;;;;;;;1.80;1.27;;;37.50;33.70;;;;;;4916515;28;88085;-73
2022/06/08 09:29:22;;;;;;;1.98;0.88;;;37.20;32.60;;;;;;4920354;28;87004;-72
2022/06/08 09:31:49;;;;;;;7.38;1.55;;;37.00;33.20;;;;;;4912221;28;86705;-73
2022/06/08 09:34:32;;;;;;;2.67;1.33;;;37.80;33.20;;;;;;4919159;28;87800;-72
2022/06/08 09:37:24;;;;;;;3.00;1.20;;;38.00;33.40;;;;;;4919939;28;86393;-73
2022/06/08 09:39:50;;;;;;;4.20;1.70;;;37.00;32.90;;;;;;4919578;28;86888;-72
2022/06/08 09:42:41;;;;;;;2.35;1.17;;;36.10;35.40;;;;;;4919407;28;87087;-72
2022/06/08 09:45:35;;;;;;;3.28;1.25;;;35.10;36.60;;;;;;4910396;28;88192;-72
2022/06/08 09:51:59;;;;;;;3.38;1.25;;;34.20;35.70;;;;;;4908168;28;86800;-72
2022/06/08 09:54:31;;;;;;;2.65;1.02;;;34.20;35.80;;;;;;4907327;28;86703;-72
2022/06/08 09:57:03;;;;;;;3.22;1.67;;;35.10;36.10;;;;;;4912475;28;88379;-73
2022/06/08 09:59:47;;;;;;;2.75;0.93;;;35.90;37.20;;;;;;4923528;28;88082;-72
2022/06/08 10:02:13;;;;;;;2.42;1.25;;;36.50;35.80;;;;;;4915183;28;86974;-72
2022/06/08 10:04:41;;;;;;;2.75;0.98;;;37.40;33.70;;;;;;4920820;28;86307;-72
2022/06/08 10:07:37;;;;;;;3.22;1.13;;;37.30;33.60;;;;;;4914886;28;87724;-72
2022/06/08 10:10:30;;;;;;;1.80;1.05;;;36.40;33.50;;;;;;4914169;28;88544;-72
2022/06/08 10:12:59;;;;;;;3.05;1.27;;;35.10;35.50;;;;;;4919535;28;87920;-72
2022/06/08 10:15:28;;;;;;;3.25;1.90;;;33.30;39.70;;;;;;4918121;28;87340;-72
2022/06/08 10:18:05;;;;;;;3.08;1.10;;;32.40;39.80;;;;;;4911594;28;87053;-71
2022/06/08 10:20:36;;;;;;;4.15;1.73;;;32.20;40.20;;;;;;4919155;28;87048;-71
2022/06/08 10:23:11;;;;;;;4.88;0.93;;;32.60;39.00;;;;;;4914345;28;86948;-72
2022/06/08 10:25:55;;;;;;;8.15;3.80;;;32.20;38.10;;;;;;4919174;28;87022;-72
2022/06/08 10:28:33;;;;;;;6.00;2.85;;;31.90;40.30;;;;;;4915757;28;90748;-72
2022/06/08 10:31:23;;;;;;;5.38;1.02;;;30.40;40.70;;;;;;4909761;28;89390;-72
2022/06/08 10:34:22;;;;;;;2.63;1.05;;;29.90;42.00;;;;;;4917770;28;86987;-72
2022/06/08 10:36:55;;;;;;;2.10;1.05;;;28.90;44.80;;;;;;4917811;28;86984;-71
2022/06/08 10:39:22;;;;;;;2.30;1.08;;;29.50;44.10;;;;;;4915917;28;88898;-71
2022/06/08 10:44:58;;;;;;;;;;;29.00;42.40;;;;;;4896442;28;86674;-72
2022/06/08 10:47:32;;;;;;;1.92;0.73;;;28.30;44.10;;;;;;4916586;28;87424;-71
2022/06/08 10:50:01;;;;;;;4.22;1.10;;;27.90;46.90;;;;;;4914171;28;87323;-71
2022/06/08 10:52:39;;;;;;;5.88;0.63;;;28.50;45.20;;;;;;4911531;28;87025;-71
2022/06/08 10:55:17;;;;;;;1.77;0.55;;;29.30;45.00;;;;;;4916870;28;86924;-72
2022/06/08 10:57:49;;;;;;;2.13;0.50;;;29.50;43.40;;;;;;4917837;28;86577;-72
2022/06/08 11:00:18;;;;;;;2.28;0.40;;;29.30;44.90;;;;;;4918365;28;88078;-71
2022/06/08 11:02:59;;;;;;;2.08;0.57;;;28.80;44.50;;;;;;4924046;28;87251;-72
2022/06/08 11:05:37;;;;;;;3.45;0.40;;;28.60;45.00;;;;;;4917668;28;88141;-71
2022/06/08 11:08:15;;;;;;;1.63;0.57;;;28.80;43.80;;;;;;4916239;28;86889;-71
2022/06/08 11:10:53;;;;;;;3.58;0.40;;;28.30;41.30;;;;;;4915399;28;87437;-71
2022/06/08 11:13:22;;;;;;;2.90;0.80;;;27.90;40.20;;;;;;4919198;28;86986;-71
2022/06/08 11:15:53;;;;;;;1.65;0.50;;;28.30;42.20;;;;;;4916508;28;87072;-71
2022/06/08 11:18:28;;;;;;;2.10;1.02;;;28.50;41.00;;;;;;4916313;28;88251;-71
2022/06/08 11:21:15;;;;;;;2.28;0.52;;;28.40;39.20;;;;;;4916201;28;87016;-71
2022/06/08 11:23:49;;;;;;;2.85;1.08;;;28.10;43.20;;;;;;4915301;28;87298;-71
2022/06/08 11:26:19;;;;;;;3.15;0.70;;;28.10;41.90;;;;;;4916883;28;87103;-71
2022/06/08 11:28:48;;;;;;;3.53;0.57;;;27.90;40.70;;;;;;4920324;28;87263;-71
2022/06/08 11:31:26;;;;;;;3.17;0.32;;;27.60;40.50;;;;;;4913900;28;88070;-72
2022/06/08 11:34:20;;;;;;;4.25;0.63;;;26.90;41.40;;;;;;4918556;28;88339;-72
2022/06/08 11:36:52;;;;;;;3.17;0.60;;;26.60;46.00;;;;;;4908183;28;86865;-71
2022/06/08 11:39:36;;;;;;;1.27;0.38;;;27.10;46.10;;;;;;4915736;28;87122;-71
2022/06/08 11:42:11;;;;;;;4.38;0.50;;;27.30;43.60;;;;;;4917969;28;87452;-71
2022/06/08 11:44:43;;;;;;;5.22;0.50;;;26.80;44.00;;;;;;4917435;28;87024;-71
2022/06/08 11:47:20;;;;;;;8.43;0.63;;;26.50;46.60;;;;;;4915050;28;87614;-72
2022/06/08 11:50:01;;;;;;;6.35;0.52;;;26.40;47.90;;;;;;4917682;28;86339;-72
2022/06/08 11:52:39;;;;;;;1.90;0.32;;;26.50;46.70;;;;;;4908297;28;87288;-72
2022/06/08 11:55:18;;;;;;;3.38;0.40;;;26.60;48.30;;;;;;4917302;28;87387;-71
2022/06/08 11:57:50;;;;;;;4.35;0.60;;;26.30;44.80;;;;;;4915023;28;87887;-71
2022/06/08 12:00:33;;;;;;;5.15;0.50;;;26.00;47.40;;;;;;4916699;28;87132;-72
2022/06/08 12:03:16;;;;;;;2.03;0.57;;;25.70;47.20;;;;;;4916784;28;87270;-71
2022/06/08 12:05:56;;;;;;;3.10;0.52;;;25.70;49.60;;;;;;4917085;28;87876;-72
2022/06/08 12:08:30;;;;;;;1.70;0.35;;;25.70;46.80;;;;;;4917315;28;87040;-72
2022/06/08 12:10:59;;;;;;;5.25;0.52;;;25.70;47.50;;;;;;4916952;28;88069;-71
2022/06/08 12:13:24;;;;;;;3.13;0.63;;;25.40;48.60;;;;;;4916634;28;87009;-72
2022/06/08 12:15:56;;;;;;;1.70;0.47;;;25.30;49.60;;;;;;4917389;28;86300;-72
2022/06/08 12:18:21;;;;;;;4.65;0.22;;;25.30;51.30;;;;;;4917128;28;87002;-72
2022/06/08 12:20:48;;;;;;;3.70;0.30;;;25.60;48.30;;;;;;4916409;28;86977;-72
2022/06/08 12:23:14;;;;;;;4.90;0.43;;;25.60;48.30;;;;;;4916000;28;88323;-71
2022/06/08 12:25:40;;;;;;;3.47;0.35;;;25.40;47.50;;;;;;4916415;28;88287;-72
2022/06/08 12:28:16;;;;;;;2.10;0.70;;;25.20;47.00;;;;;;4917754;28;87223;-72
2022/06/08 12:30:44;;;;;;;1.77;0.30;;;25.60;45.80;;;;;;4916865;28;87282;-72
2022/06/08 12:33:16;;;;;;;3.30;0.40;;;25.70;47.90;;;;;;4915147;28;87048;-71
2022/06/08 12:35:53;;;;;;;1.50;0.43;;;25.40;49.40;;;;;;4916760;28;87270;-72
2022/06/08 12:38:22;;;;;;;2.13;0.30;;;25.30;50.20;;;;;;4916413;28;87253;-72
2022/06/08 12:41:02;;;;;;;1.83;0.30;;;25.70;50.70;;;;;;4916963;28;86551;-72
2022/06/08 12:43:39;;;;;;;1.35;0.32;;;25.80;49.70;;;;;;4912637;28;87415;-72
2022/06/08 12:46:16;;;;;;;1.13;0.40;;;25.90;47.90;;;;;;4916365;28;87162;-71
2022/06/08 12:48:42;;;;;;;1.42;0.43;;;25.40;47.20;;;;;;4878228;28;88339;-72
2022/06/08 12:51:24;;;;;;;1.30;0.43;;;25.20;51.00;;;;;;4878546;28;87018;-72
2022/06/08 12:53:51;;;;;;;2.15;0.45;;;25.30;47.60;;;;;;4877268;28;87267;-71
2022/06/08 12:56:19;;;;;;;2.47;0.50;;;25.20;49.20;;;;;;4877432;28;86944;-71
2022/06/08 12:58:55;;;;;;;3.25;0.68;;;25.60;47.50;;;;;;4878294;28;87670;-71
2022/06/08 13:01:23;;;;;;;2.53;0.32;;;26.00;46.20;;;;;;4878343;28;87129;-71
2022/06/08 13:03:49;;;;;;;2.67;0.60;;;26.10;47.00;;;;;;4878009;28;87636;-71
2022/06/08 13:06:16;;;;;;;1.23;0.30;;;26.30;47.30;;;;;;4878631;28;86908;-72
2022/06/08 13:08:42;;;;;;;3.30;0.40;;;26.20;48.00;;;;;;4877580;28;87132;-71
2022/06/08 13:11:16;;;;;;;3.30;0.22;;;26.20;47.60;;;;;;4877974;28;87092;-72
2022/06/08 13:13:43;;;;;;;1.63;0.22;;;26.30;48.60;;;;;;4876832;28;88097;-72
2022/06/08 13:16:21;;;;;;;3.95;0.60;;;26.30;47.40;;;;;;4863364;28;87094;-72
2022/06/08 13:18:48;;;;;;;2.15;0.47;;;25.90;50.00;;;;;;4873962;28;86836;-72
2022/06/08 13:21:14;;;;;;;2.25;0.30;;;26.00;45.90;;;;;;4877897;28;87509;-72
2022/06/08 13:23:40;;;;;;;1.85;0.43;;;26.00;48.50;;;;;;4877542;28;87500;-72
2022/06/08 13:26:27;;;;;;;1.15;0.22;;;25.50;46.90;;;;;;4870170;28;86973;-73
2022/06/08 13:28:56;;;;;;;2.30;0.30;;;25.30;49.30;;;;;;4877436;28;87020;-72
2022/06/08 13:31:23;;;;;;;2.13;0.30;;;25.40;50.00;;;;;;4875777;28;86248;-71
2022/06/08 13:33:58;;;;;;;1.48;0.20;;;25.50;46.40;;;;;;4875270;28;87085;-71
2022/06/08 13:36:32;;;;;;;1.42;0.45;;;25.10;49.90;;;;;;4876705;28;87585;-72
2022/06/08 13:39:13;;;;;;;2.03;0.32;;;24.70;50.20;;;;;;4877696;28;88248;-72
2022/06/08 13:41:42;;;;;;;1.10;0.25;;;24.90;49.50;;;;;;4875905;28;87285;-72
2022/06/08 13:44:25;;;;;;;2.78;0.45;;;24.70;48.20;;;;;;4873142;28;88153;-72
2022/06/08 13:47:00;;;;;;;1.65;0.45;;;24.50;47.40;;;;;;4887191;28;87271;-72
2022/06/08 13:49:27;;;;;;;1.40;0.20;;;24.60;48.20;;;;;;4914386;28;87090;-72
2022/06/08 13:51:53;;;;;;;1.30;0.20;;;25.00;49.60;;;;;;4919017;28;87193;-72
2022/06/08 13:54:52;;;;;;;1.92;0.30;;;25.60;49.00;;;;;;4918257;28;87246;-72
2022/06/08 13:57:19;;;;;;;1.40;0.30;;;25.50;48.90;;;;;;4914322;28;87972;-72
2022/06/08 13:59:46;;;;;;;1.55;0.35;;;25.40;47.90;;;;;;4919177;28;86919;-72
2022/06/08 14:02:23;;;;;;;1.80;0.40;;;25.10;50.10;;;;;;4918750;28;86925;-71
2022/06/08 14:04:52;;;;;;;2.72;0.40;;;25.10;48.30;;;;;;4916396;28;88710;-72
2022/06/08 14:13:25;;;;;;;4.18;0.30;;;24.30;51.60;;;;;;4914570;28;87209;-72
2022/06/08 14:15:54;;;;;;;2.55;0.40;;;24.70;49.20;;;;;;4918245;28;89375;-72
2022/06/08 14:18:26;;;;;;;3.95;0.45;;;24.70;50.10;;;;;;4917749;28;87702;-72
2022/06/08 14:20:52;;;;;;;1.83;0.20;;;24.70;52.00;;;;;;4918758;28;86819;-72
2022/06/08 14:23:19;;;;;;;2.15;0.40;;;25.00;50.90;;;;;;4918754;28;86898;-72
2022/06/08 14:25:46;;;;;;;2.47;0.50;;;25.00;50.00;;;;;;4917312;28;88229;-71
2022/06/08 14:28:12;;;;;;;2.22;0.30;;;24.60;52.20;;;;;;4917955;28;87161;-72
2022/06/08 14:30:41;;;;;;;2.00;0.30;;;24.90;52.00;;;;;;4918995;28;88036;-72
2022/06/08 14:33:15;;;;;;;;;;;24.70;51.80;;;;;;4918300;28;87092;-72
2022/06/08 14:35:41;;;;;;;2.50;0.30;;;24.40;53.30;;;;;;4919272;28;87309;-72
2022/06/08 14:38:14;;;;;;;2.88;0.60;;;24.50;54.10;;;;;;4918449;28;87797;-72
2022/06/08 14:40:40;;;;;;;3.08;0.32;;;24.50;53.90;;;;;;4917220;28;87117;-72
2022/06/08 14:43:06;;;;;;;2.85;0.30;;;24.20;54.80;;;;;;4918097;28;86974;-72
2022/06/08 14:45:34;;;;;;;1.92;0.38;;;24.20;55.10;;;;;;4910102;28;88168;-72
2022/06/08 14:48:00;;;;;;;5.82;0.40;;;24.30;55.10;;;;;;4917456;28;87813;-71
2022/06/08 14:50:30;;;;;;;2.45;0.40;;;24.40;55.50;;;;;;4918085;28;87059;-72
2022/06/08 14:52:58;;;;;;;2.47;0.38;;;24.00;56.80;;;;;;4917225;28;87145;-71
2022/06/08 14:58:15;;;;;;;2.15;0.30;;;23.70;57.10;;;;;;4918327;28;87977;-72
2022/06/08 15:00:41;;;;;;;3.92;0.55;;;23.60;58.40;;;;;;4918376;28;86987;-71
2022/06/08 15:03:08;;;;;;;3.33;0.43;;;23.20;59.70;;;;;;4915964;28;87102;-72
2022/06/08 15:05:35;;;;;;;5.28;2.03;;;23.00;61.00;;;;;;4912403;28;87026;-72
2022/06/08 15:08:01;;;;;;;2.60;0.40;;;22.80;61.50;;;;;;4912899;28;87408;-71
2022/06/08 15:10:28;;;;;;;6.78;2.53;;;22.50;62.40;;;;;;4914535;28;87123;-72
2022/06/08 15:12:58;;;;;;;2.95;0.40;;;22.50;61.90;;;;;;4910607;28;86663;-72
2022/06/08 15:15:27;;;;;;;3.38;0.32;;;22.50;61.80;;;;;;4913509;28;87102;-72
2022/06/08 15:17:56;;;;;;;3.35;0.55;;;22.60;60.40;;;;;;4916599;28;87114;-71
2022/06/08 15:20:28;;;;;;;10.50;0.73;;;22.40;60.20;;;;;;4916851;28;88172;-71
2022/06/08 15:22:57;;;;;;;8.27;0.47;;;22.40;59.30;;;;;;4915092;28;86938;-72
2022/06/08 15:25:28;;;;;;;3.22;0.30;;;22.50;58.60;;;;;;4911970;28;87067;-72
2022/06/08 15:27:57;;;;;;;1.63;0.30;;;22.30;57.80;;;;;;4912406;28;87118;-71
2022/06/08 15:30:29;;;;;;;4.53;0.70;;;22.10;59.20;;;;;;4913389;28;87088;-71
2022/06/08 15:32:55;;;;;;;2.83;0.40;;;22.00;59.60;;;;;;4916580;28;87032;-71
2022/06/08 15:35:23;;;;;;;4.00;0.50;;;21.60;60.40;;;;;;4921713;28;87151;-71
2022/06/08 15:37:54;;;;;;;3.95;0.25;;;21.30;61.80;;;;;;4913198;28;86166;-71
2022/06/08 15:40:24;;;;;;;2.13;0.30;;;21.20;62.10;;;;;;4914327;28;87413;-71
2022/06/08 15:42:50;;;;;;;3.22;0.50;;;20.80;64.30;;;;;;4914251;28;87675;-71
2022/06/08 15:45:17;;;;;;;4.97;0.57;;;20.60;66.40;;;;;;4913077;28;88178;-71
2022/06/08 15:47:47;;;;;;;6.53;0.47;;;20.50;67.90;;;;;;4914190;28;88798;-71
2022/06/08 15:50:20;;;;;;;3.35;0.32;;;20.20;69.10;;;;;;4908803;28;89277;-71
2022/06/08 15:52:49;;;;;;;3.95;0.40;;;20.00;69.40;;;;;;4909710;28;87031;-71
2022/06/08 15:55:24;;;;;;;;;;;20.10;69.60;;;;;;4913122;28;87510;-71
2022/06/08 15:57:50;;;;;;;1.42;0.30;;;19.80;69.90;;;;;;4913987;28;87114;-72
2022/06/08 16:00:21;;;;;;;1.55;0.20;;;19.80;70.20;;;;;;4913546;28;87146;-71
2022/06/08 16:02:51;;;;;;;3.60;0.20;;;19.70;70.40;;;;;;4908618;28;86229;-72
2022/06/08 16:05:17;;;;;;;1.70;0.20;;;19.40;72.70;;;;;;4906388;28;87299;-72
2022/06/08 16:07:44;;;;;;;2.25;0.55;;;19.10;74.70;;;;;;4901669;28;87927;-71
2022/06/08 16:10:12;;;;;;;3.80;0.45;;;19.00;75.70;;;;;;4906332;28;87906;-71
2022/06/08 16:12:38;;;;;;;3.88;0.22;;;18.80;76.60;;;;;;4912779;28;87406;-72
2022/06/08 16:15:05;;;;;;;1.20;0.20;;;18.80;76.70;;;;;;4914298;28;88581;-71